createdAt,value
2023-01-30T00:01:50.147Z,21.70
2023-01-30T00:04:17.524Z,20.67
2023-01-30T00:06:44.838Z,22.08
2023-01-30T00:09:14.891Z,23.10
2023-01-30T00:11:42.547Z,22.33
2023-01-30T00:14:09.664Z,21.30
2023-01-30T00:16:36.639Z,17.08
2023-01-30T00:19:03.734Z,17.48
2023-01-30T00:21:30.797Z,17.55
2023-01-30T00:23:57.965Z,20.33
2023-01-30T00:26:24.917Z,18.10
2023-01-30T00:28:51.817Z,18.50
2023-01-30T00:31:18.877Z,25.90
2023-01-30T00:33:45.811Z,20.67
2023-01-30T00:36:12.768Z,23.35
2023-01-30T00:38:39.846Z,20.92
2023-01-30T00:41:07.647Z,25.88
2023-01-30T00:43:53.822Z,18.30
2023-01-30T00:46:49.908Z,16.17
2023-01-30T00:49:17.201Z,23.48
2023-01-30T00:51:44.295Z,16.60
2023-01-30T00:54:11.312Z,17.75
2023-01-30T00:56:38.184Z,25.30
2023-01-30T00:59:05.183Z,17.00
2023-01-30T01:01:32.133Z,16.13
2023-01-30T01:03:59.203Z,16.02
2023-01-30T01:06:26.106Z,19.10
2023-01-30T01:08:53.041Z,19.00
2023-01-30T01:11:25.852Z,16.50
2023-01-30T01:13:58.039Z,13.03
2023-01-30T01:16:25.964Z,13.20
2023-01-30T01:18:53.048Z,15.85
2023-01-30T01:21:21.636Z,15.27
2023-01-30T01:23:53.289Z,17.38
2023-01-30T01:26:21.300Z,16.75
2023-01-30T01:28:48.263Z,17.33
2023-01-30T01:31:16.843Z,17.83
2023-01-30T01:33:44.152Z,18.30
2023-01-30T01:36:12.293Z,14.20
2023-01-30T01:38:42.408Z,14.80
2023-01-30T01:41:12.128Z,15.90
2023-01-30T01:44:02.033Z,24.52
2023-01-30T01:46:46.134Z,22.65
2023-01-30T01:49:18.336Z,22.50
2023-01-30T01:51:56.551Z,22.88
2023-01-30T01:54:52.006Z,23.42
2023-01-30T01:57:27.396Z,16.10
2023-01-30T02:00:04.288Z,20.45
2023-01-30T02:02:46.619Z,29.80
2023-01-30T02:05:16.653Z,20.23
2023-01-30T02:08:06.088Z,22.90
2023-01-30T02:10:41.922Z,19.75
2023-01-30T02:13:08.862Z,22.15
2023-01-30T02:15:35.851Z,26.10
2023-01-30T02:18:03.902Z,23.13
2023-01-30T02:20:40.878Z,17.73
2023-01-30T02:23:27.173Z,22.52
2023-01-30T02:26:00.123Z,19.17
2023-01-30T02:28:59.756Z,22.00
2023-01-30T02:31:32.674Z,16.23
2023-01-30T02:34:12.041Z,20.42
2023-01-30T02:36:59.576Z,22.52
2023-01-30T02:40:14.178Z,15.52
2023-01-30T02:43:04.861Z,20.33
2023-01-30T02:45:55.773Z,17.65
2023-01-30T02:48:46.111Z,20.38
2023-01-30T02:51:28.567Z,16.13
2023-01-30T02:53:55.792Z,16.13
2023-01-30T02:56:23.102Z,18.83
2023-01-30T02:58:56.325Z,21.05
2023-01-30T03:01:51.726Z,14.27
2023-01-30T03:04:48.864Z,21.63
2023-01-30T03:07:35.561Z,20.27
2023-01-30T03:10:07.374Z,17.83
2023-01-30T03:12:50.155Z,16.35
2023-01-30T03:15:27.801Z,16.70
2023-01-30T03:17:55.940Z,16.90
2023-01-30T03:20:23.645Z,16.83
2023-01-30T03:22:53.363Z,18.25
2023-01-30T03:25:22.644Z,14.50
2023-01-30T03:27:53.195Z,25.55
2023-01-30T03:30:21.253Z,17.30
2023-01-30T03:32:53.102Z,14.80
2023-01-30T03:35:20.601Z,18.23
2023-01-30T03:37:48.288Z,17.75
2023-01-30T03:40:17.081Z,17.88
2023-01-30T03:42:45.542Z,18.40
2023-01-30T03:45:12.703Z,12.65
2023-01-30T03:47:39.759Z,15.45
2023-01-30T03:50:07.637Z,16.88
2023-01-30T03:52:35.648Z,18.42
2023-01-30T03:55:03.839Z,19.80
2023-01-30T03:57:31.171Z,20.52
2023-01-30T03:59:59.634Z,21.27
2023-01-30T04:02:26.871Z,23.65
2023-01-30T04:04:55.128Z,18.23
2023-01-30T04:07:22.162Z,17.95
2023-01-30T04:09:50.837Z,17.52
2023-01-30T04:12:19.878Z,14.80
2023-01-30T04:14:53.913Z,18.67
2023-01-30T04:17:30.059Z,19.20
2023-01-30T04:20:16.154Z,21.42
2023-01-30T04:22:48.839Z,21.23
2023-01-30T04:25:17.246Z,26.83
2023-01-30T04:27:44.677Z,22.77
2023-01-30T07:30:26.243Z,57.40
2023-01-30T07:35:23.014Z,49.40
2023-01-30T07:37:51.157Z,38.92
2023-01-30T07:40:19.791Z,37.28
2023-01-30T07:43:01.438Z,42.45
2023-01-30T07:45:45.443Z,45.67
2023-01-30T07:48:17.988Z,32.60
2023-01-30T07:50:45.488Z,43.20
2023-01-30T07:53:15.095Z,41.72
2023-01-30T07:55:42.780Z,43.78
2023-01-30T07:58:14.055Z,47.05
2023-01-30T08:00:41.151Z,51.20
2023-01-30T08:03:15.447Z,45.80
2023-01-30T08:05:45.235Z,40.20
2023-01-30T08:08:12.167Z,47.38
2023-01-30T08:10:39.223Z,49.28
2023-01-30T08:13:06.095Z,34.15
2023-01-30T08:15:33.608Z,52.40
2023-01-30T08:18:00.809Z,42.20
2023-01-30T08:20:28.385Z,42.28
2023-01-30T08:22:55.979Z,42.90
2023-01-30T08:25:23.338Z,48.00
2023-01-30T08:27:50.731Z,35.63
2023-01-30T08:30:19.075Z,35.00
2023-01-30T08:32:46.327Z,36.10
2023-01-30T08:35:14.118Z,40.88
2023-01-30T08:37:42.325Z,45.30
2023-01-30T08:40:11.767Z,39.35
2023-01-30T08:42:38.763Z,45.85
2023-01-30T08:45:06.480Z,40.72
2023-01-30T08:47:35.550Z,39.53
2023-01-30T08:50:03.076Z,48.17
2023-01-30T08:52:30.050Z,45.45
2023-01-30T08:54:56.953Z,57.33
2023-01-30T08:57:23.937Z,46.20
2023-01-30T08:59:53.750Z,55.10
2023-01-30T09:02:20.840Z,33.88
2023-01-30T09:04:47.794Z,41.42
2023-01-30T09:07:14.875Z,60.15
2023-01-30T09:09:41.806Z,42.38
2023-01-30T09:12:08.774Z,41.95
2023-01-30T09:14:35.762Z,29.02
2023-01-30T09:17:07.874Z,35.78
2023-01-30T09:19:37.151Z,30.95
2023-01-30T09:22:04.674Z,25.20
2023-01-30T09:24:31.723Z,28.77
2023-01-30T09:26:59.099Z,30.40
2023-01-30T09:29:27.501Z,30.92
2023-01-30T09:31:56.561Z,34.78
2023-01-30T09:34:28.788Z,28.25
2023-01-30T09:37:00.318Z,26.80
2023-01-30T09:39:28.231Z,25.67
2023-01-30T09:42:19.473Z,29.70
2023-01-30T09:45:04.483Z,24.63
2023-01-30T09:47:50.051Z,34.75
2023-01-30T09:51:13.568Z,32.42
2023-01-30T09:54:14.238Z,28.10
2023-01-30T09:56:41.524Z,29.38
2023-01-30T09:59:20.731Z,29.08
2023-01-30T10:02:01.021Z,32.33
2023-01-30T10:04:35.203Z,33.00
2023-01-30T10:07:37.405Z,32.78
2023-01-30T10:10:16.506Z,29.85
2023-01-30T10:12:43.611Z,23.85
2023-01-30T10:15:37.113Z,27.00
2023-01-30T10:18:21.845Z,27.80
2023-01-30T10:20:52.843Z,28.00
2023-01-30T10:23:47.662Z,27.02
2023-01-30T10:26:21.768Z,30.05
2023-01-30T10:29:07.817Z,30.33
2023-01-30T10:31:48.892Z,29.70
2023-01-30T10:34:33.415Z,29.63
2023-01-30T10:37:21.900Z,32.58
2023-01-30T10:40:26.108Z,27.73
2023-01-30T10:43:03.933Z,36.60
2023-01-30T10:45:48.968Z,27.52
2023-01-30T10:48:53.269Z,31.48
2023-01-30T10:51:54.909Z,35.75
2023-01-30T10:54:44.286Z,33.28
2023-01-30T10:57:13.935Z,32.50
2023-01-30T11:00:09.952Z,32.72
2023-01-30T11:02:55.353Z,36.40
2023-01-30T11:05:25.702Z,37.28
2023-01-30T11:07:52.628Z,30.48
2023-01-30T11:10:24.401Z,47.13
2023-01-30T11:12:58.657Z,35.45
2023-01-30T11:15:38.681Z,34.35
2023-01-30T11:19:17.667Z,43.08
2023-01-30T11:21:07.797Z,37.40
2023-01-30T11:23:40.638Z,50.08
2023-01-30T11:26:11.716Z,45.47
2023-01-30T11:28:44.152Z,43.15
2023-01-30T11:31:31.489Z,51.20
2023-01-30T11:34:27.809Z,38.28
2023-01-30T11:37:22.874Z,47.28
2023-01-30T11:39:53.340Z,43.10
2023-01-30T11:42:31.717Z,44.15
2023-01-30T11:45:16.180Z,46.95
2023-01-30T11:48:05.123Z,55.63
2023-01-30T11:50:49.853Z,43.13
2023-01-30T11:53:25.885Z,46.53
2023-01-30T11:56:05.507Z,45.90
2023-01-30T11:58:36.061Z,50.25
2023-01-30T12:01:05.166Z,49.63
2023-01-30T12:03:34.520Z,49.50
2023-01-30T12:06:01.603Z,52.88
2023-01-30T12:08:43.584Z,49.22
2023-01-30T12:11:29.480Z,51.72
2023-01-30T12:14:09.299Z,55.78
2023-01-30T12:16:51.775Z,50.83
2023-01-30T12:19:31.045Z,53.22
2023-01-30T12:22:19.657Z,60.58
2023-01-30T12:25:03.362Z,63.92
2023-01-30T12:28:09.712Z,67.63
2023-01-30T12:31:10.863Z,56.13
2023-01-30T12:33:38.003Z,59.40
2023-01-30T12:36:23.500Z,62.03
2023-01-30T12:38:58.222Z,62.13
2023-01-30T12:41:25.131Z,55.40
2023-01-30T14:45:58.112Z,47.28
2023-01-30T14:48:49.926Z,47.00
2023-01-30T14:56:49.149Z,46.78
2023-01-30T14:59:16.024Z,46.80
2023-01-30T15:02:13.480Z,51.50
2023-01-30T15:05:01.699Z,45.03
2023-01-30T15:07:40.925Z,56.33
2023-01-30T15:10:26.698Z,55.40
2023-01-30T15:13:04.429Z,53.45
2023-01-30T15:15:52.982Z,60.78
2023-01-30T15:18:34.809Z,66.95
2023-01-30T15:21:40.952Z,55.85
2023-01-30T15:24:25.326Z,61.85
2023-01-30T15:27:03.987Z,49.75
2023-01-30T15:29:56.063Z,58.35
2023-01-30T15:32:26.301Z,63.80
2023-01-30T15:35:01.114Z,61.28
2023-01-30T15:37:53.420Z,56.20
2023-01-30T15:40:30.015Z,67.75
2023-01-30T15:43:09.153Z,60.22
2023-01-30T15:46:03.437Z,59.75
2023-01-30T15:51:04.501Z,68.85
2023-01-30T15:53:42.452Z,71.63
2023-01-30T15:56:12.083Z,76.97
2023-01-30T15:58:43.145Z,73.32
2023-01-30T16:01:17.214Z,66.80
2023-01-30T16:06:40.465Z,82.75
2023-01-30T16:09:20.116Z,83.40
2023-01-30T16:11:47.738Z,87.05
2023-01-30T16:14:20.003Z,83.00
2023-01-30T16:16:50.527Z,80.03
2023-01-30T16:19:33.077Z,88.07
2023-01-30T16:22:05.774Z,95.25
2023-01-30T16:24:36.050Z,89.13
2023-01-30T16:27:07.289Z,97.38
2023-01-30T16:29:51.207Z,83.55
2023-01-30T16:32:21.555Z,89.88
2023-01-30T16:34:48.448Z,87.03
2023-01-30T16:37:30.977Z,84.43
2023-01-30T16:40:16.488Z,80.10
2023-01-30T16:43:24.029Z,84.68
2023-01-30T16:46:23.797Z,85.55
2023-01-30T16:48:51.222Z,94.22
2023-01-30T16:51:23.964Z,88.43
2023-01-30T16:53:59.216Z,83.47
2023-01-30T16:56:27.600Z,83.93
2023-01-30T16:58:58.002Z,86.03
2023-01-30T17:01:40.601Z,83.82
2023-01-30T17:04:18.941Z,93.68
2023-01-30T17:06:53.242Z,81.95
2023-01-30T17:09:42.616Z,85.05
2023-01-30T17:12:29.974Z,91.75
2023-01-30T17:15:12.250Z,74.95
2023-01-30T17:17:42.391Z,84.75
2023-01-30T17:20:10.883Z,93.57
2023-01-30T17:22:40.406Z,91.40
2023-01-30T17:25:17.809Z,89.43
2023-01-30T17:27:44.984Z,93.93
2023-01-30T17:30:17.066Z,90.15
2023-01-30T17:32:45.269Z,81.72
2023-01-30T17:35:12.700Z,90.95
2023-01-30T17:37:39.611Z,92.57
2023-01-30T17:40:19.143Z,96.85
2023-01-30T17:42:49.157Z,90.20
2023-01-30T17:45:16.222Z,90.25
2023-01-30T17:47:43.156Z,87.95
2023-01-30T17:50:14.369Z,86.68
2023-01-30T17:52:41.889Z,84.53
2023-01-30T17:55:13.289Z,95.03
2023-01-30T17:57:43.242Z,91.03
2023-01-30T18:00:17.589Z,99.32
2023-01-30T18:02:45.333Z,99.88
2023-01-30T18:05:12.331Z,88.18
2023-01-30T18:07:40.242Z,96.88
2023-01-30T18:10:11.654Z,88.93
2023-01-30T18:12:38.590Z,106.40
2023-01-30T18:15:06.037Z,92.45
2023-01-30T18:17:33.107Z,92.45
2023-01-30T18:20:01.113Z,92.65
2023-01-30T18:22:27.988Z,88.82
2023-01-30T18:24:54.889Z,90.40
2023-01-30T18:27:21.912Z,96.80
2023-01-30T18:29:48.845Z,96.43
2023-01-30T18:32:15.763Z,103.93
2023-01-30T18:34:42.662Z,93.82
2023-01-30T18:37:09.580Z,85.55
2023-01-30T18:39:38.311Z,100.05
2023-01-30T18:42:06.431Z,96.53
2023-01-30T18:44:33.460Z,91.05
2023-01-30T18:47:00.462Z,86.53
2023-01-30T18:49:27.435Z,86.05
2023-01-30T18:51:54.448Z,91.75
2023-01-30T18:54:21.384Z,80.15
2023-01-30T18:56:48.317Z,86.68
2023-01-30T18:59:15.226Z,81.82
2023-01-30T19:01:42.762Z,84.30
2023-01-30T19:04:11.493Z,97.88
2023-01-30T19:06:40.588Z,91.82
2023-01-30T19:09:08.361Z,87.43
2023-01-30T19:11:53.801Z,79.07
2023-01-30T19:14:20.724Z,92.40
2023-01-30T19:16:47.799Z,103.00
2023-01-30T19:19:14.808Z,94.97
2023-01-30T19:21:41.861Z,91.97
2023-01-30T19:24:13.184Z,100.18
2023-01-30T19:26:40.565Z,97.20
2023-01-30T19:29:07.883Z,85.65
2023-01-30T19:31:34.970Z,90.20
2023-01-30T19:34:06.340Z,87.28
2023-01-30T19:36:35.376Z,98.25
2023-01-30T19:39:04.056Z,86.88
2023-01-30T19:41:33.907Z,92.68
2023-01-30T19:44:02.510Z,93.05
2023-01-30T19:46:29.939Z,94.03
2023-01-30T19:48:57.340Z,93.68
2023-01-30T19:51:29.367Z,99.55
2023-01-30T19:54:04.988Z,99.20
2023-01-30T19:56:32.965Z,94.65
2023-01-30T19:59:01.206Z,100.55
2023-01-30T20:01:31.046Z,95.18
2023-01-30T20:03:58.949Z,90.03
2023-01-30T20:06:31.813Z,103.28
2023-01-30T20:09:05.282Z,78.03
2023-01-30T20:11:34.757Z,96.20
2023-01-30T20:14:02.053Z,88.53
2023-01-30T20:16:31.222Z,86.10
2023-01-30T20:19:13.897Z,86.55
2023-01-30T20:21:41.223Z,91.00
2023-01-30T20:24:09.901Z,95.63
2023-01-30T20:26:39.738Z,84.45
2023-01-30T20:29:08.476Z,79.22
2023-01-30T20:31:35.733Z,96.85
2023-01-30T20:34:04.267Z,77.95
2023-01-30T20:36:31.317Z,81.20
2023-01-30T20:39:04.487Z,81.18
2023-01-30T20:41:37.631Z,77.05
2023-01-30T20:44:07.003Z,91.10
2023-01-30T20:46:41.262Z,92.38
2023-01-30T20:49:19.883Z,91.63
2023-01-30T20:51:48.847Z,126.78
2023-01-30T20:54:17.129Z,81.75
2023-01-30T20:56:47.192Z,90.38
2023-01-30T20:59:17.042Z,83.35
2023-01-30T21:01:44.418Z,79.95
2023-01-30T21:04:17.002Z,83.65
2023-01-30T21:06:45.959Z,79.78
2023-01-30T21:09:19.364Z,78.65
2023-01-30T21:11:47.320Z,80.05
2023-01-30T21:14:15.192Z,83.70
2023-01-30T21:16:42.763Z,86.85
2023-01-30T21:19:16.081Z,78.80
2023-01-30T21:21:53.409Z,81.32
2023-01-30T21:24:24.423Z,73.85
2023-01-30T21:26:52.128Z,81.65
2023-01-30T21:29:22.068Z,80.03
2023-01-30T21:31:50.782Z,85.28
2023-01-30T21:34:17.948Z,78.57
2023-01-30T21:37:05.387Z,77.25
2023-01-30T21:39:50.902Z,83.28
2023-01-30T21:42:36.972Z,88.60
2023-01-30T21:45:06.615Z,90.22
2023-01-30T21:47:34.263Z,82.57
2023-01-30T21:50:01.744Z,72.78
2023-01-30T21:52:30.903Z,92.22
2023-01-30T21:54:59.095Z,77.07
2023-01-30T21:57:26.143Z,84.35
2023-01-30T21:59:53.104Z,88.43
2023-01-30T22:02:20.052Z,85.28
2023-01-30T22:04:47.278Z,86.03
2023-01-30T22:07:14.279Z,81.03
2023-01-30T22:09:41.687Z,91.82
2023-01-30T22:12:08.695Z,93.60
2023-01-30T22:14:36.346Z,85.03
2023-01-30T22:17:03.476Z,94.38
2023-01-30T22:19:35.661Z,95.25
2023-01-30T22:22:03.362Z,95.65
2023-01-30T22:24:30.685Z,88.68
2023-01-30T22:26:57.927Z,90.28
2023-01-30T22:29:24.866Z,86.20
2023-01-30T22:31:52.610Z,94.22
2023-01-30T22:34:19.898Z,101.60
2023-01-30T22:36:47.960Z,95.50
2023-01-30T22:39:15.728Z,91.13
2023-01-30T22:41:46.168Z,91.03
2023-01-30T22:44:13.257Z,96.32
2023-01-30T22:46:41.542Z,88.45
2023-01-30T22:49:09.997Z,104.72
2023-01-30T22:51:40.031Z,93.97
2023-01-30T22:54:18.284Z,95.72
2023-01-30T22:56:48.471Z,99.72
2023-01-30T22:59:15.946Z,97.88
2023-01-30T23:01:45.393Z,100.35
2023-01-30T23:04:18.101Z,87.88
2023-01-30T23:06:46.508Z,89.87
2023-01-30T23:09:19.361Z,102.45
2023-01-30T23:12:09.536Z,93.28
2023-01-30T23:14:38.001Z,96.65
2023-01-30T23:17:25.556Z,99.57
2023-01-30T23:19:53.581Z,100.90
2023-01-30T23:22:20.702Z,89.53
2023-01-30T23:24:48.681Z,97.80
2023-01-30T23:27:15.840Z,101.00
2023-01-30T23:29:42.817Z,114.20
2023-01-30T23:32:09.796Z,103.68
2023-01-30T23:34:36.725Z,90.05
2023-01-30T23:37:03.690Z,107.72
2023-01-30T23:39:30.573Z,102.65
2023-01-30T23:41:57.470Z,95.93
2023-01-30T23:44:24.361Z,99.13
2023-01-30T23:46:51.309Z,88.47
2023-01-30T23:49:18.424Z,106.00
2023-01-30T23:51:45.401Z,89.45
2023-01-30T23:54:13.232Z,86.80
2023-01-30T23:56:42.928Z,89.40
2023-01-30T23:59:10.424Z,93.45
